sensor_id;sensor_type;location;lat;lon;timestamp;P1;durP1;ratioP1;P2;durP2;ratioP2
24826;SDS011;12910;57.690;11.974;2023-04-06T00:00:08;1.00;;;0.80;;
24826;SDS011;12910;57.690;11.974;2023-04-06T00:02:34;0.70;;;0.70;;
24826;SDS011;12910;57.690;11.974;2023-04-06T00:05:00;0.73;;;0.73;;
24826;SDS011;12910;57.690;11.974;2023-04-06T00:07:25;1.03;;;0.80;;
24826;SDS011;12910;57.690;11.974;2023-04-06T00:09:51;0.87;;;0.73;;
24826;SDS011;12910;57.690;11.974;2023-04-06T00:12:16;1.27;;;1.00;;
24826;SDS011;12910;57.690;11.974;2023-04-06T00:14:42;0.80;;;0.80;;
24826;SDS011;12910;57.690;11.974;2023-04-06T00:17:07;0.70;;;0.70;;
24826;SDS011;12910;57.690;11.974;2023-04-06T00:19:33;1.63;;;0.97;;
24826;SDS011;12910;57.690;11.974;2023-04-06T00:21:58;0.87;;;0.70;;
24826;SDS011;12910;57.690;11.974;2023-04-06T00:24:24;0.70;;;0.70;;
24826;SDS011;12910;57.690;11.974;2023-04-06T00:26:50;0.70;;;0.70;;
24826;SDS011;12910;57.690;11.974;2023-04-06T00:29:15;1.23;;;1.10;;
24826;SDS011;12910;57.690;11.974;2023-04-06T00:31:40;0.70;;;0.70;;
24826;SDS011;12910;57.690;11.974;2023-04-06T00:34:06;0.70;;;0.70;;
24826;SDS011;12910;57.690;11.974;2023-04-06T00:36:31;0.87;;;0.87;;
24826;SDS011;12910;57.690;11.974;2023-04-06T00:38:56;1.00;;;1.00;;
24826;SDS011;12910;57.690;11.974;2023-04-06T00:41:22;1.67;;;0.80;;
24826;SDS011;12910;57.690;11.974;2023-04-06T00:43:47;0.93;;;0.70;;
24826;SDS011;12910;57.690;11.974;2023-04-06T00:46:13;0.80;;;0.80;;
24826;SDS011;12910;57.690;11.974;2023-04-06T00:48:38;1.30;;;0.80;;
24826;SDS011;12910;57.690;11.974;2023-04-06T00:51:04;0.70;;;0.70;;
24826;SDS011;12910;57.690;11.974;2023-04-06T00:53:30;0.87;;;0.70;;
24826;SDS011;12910;57.690;11.974;2023-04-06T00:55:55;0.80;;;0.80;;
24826;SDS011;12910;57.690;11.974;2023-04-06T00:58:20;0.80;;;0.80;;
24826;SDS011;12910;57.690;11.974;2023-04-06T01:00:47;0.80;;;0.80;;
24826;SDS011;12910;57.690;11.974;2023-04-06T01:03:12;0.80;;;0.80;;
24826;SDS011;12910;57.690;11.974;2023-04-06T01:05:38;0.70;;;0.70;;
24826;SDS011;12910;57.690;11.974;2023-04-06T01:08:05;0.60;;;0.60;;
24826;SDS011;12910;57.690;11.974;2023-04-06T01:10:32;0.80;;;0.77;;
24826;SDS011;12910;57.690;11.974;2023-04-06T01:12:57;0.70;;;0.70;;
24826;SDS011;12910;57.690;11.974;2023-04-06T01:15:23;0.90;;;0.80;;
24826;SDS011;12910;57.690;11.974;2023-04-06T01:17:49;0.73;;;0.60;;
24826;SDS011;12910;57.690;11.974;2023-04-06T01:20:14;1.47;;;0.70;;
24826;SDS011;12910;57.690;11.974;2023-04-06T01:22:40;0.60;;;0.60;;
24826;SDS011;12910;57.690;11.974;2023-04-06T01:25:05;1.00;;;0.83;;
24826;SDS011;12910;57.690;11.974;2023-04-06T01:27:31;0.70;;;0.70;;
24826;SDS011;12910;57.690;11.974;2023-04-06T01:29:57;5.77;;;1.17;;
24826;SDS011;12910;57.690;11.974;2023-04-06T01:32:22;0.90;;;0.70;;
24826;SDS011;12910;57.690;11.974;2023-04-06T01:34:48;0.70;;;0.70;;
24826;SDS011;12910;57.690;11.974;2023-04-06T01:37:13;1.00;;;0.70;;
24826;SDS011;12910;57.690;11.974;2023-04-06T01:39:38;0.73;;;0.73;;
24826;SDS011;12910;57.690;11.974;2023-04-06T01:42:04;0.83;;;0.83;;
24826;SDS011;12910;57.690;11.974;2023-04-06T01:44:30;0.80;;;0.80;;
24826;SDS011;12910;57.690;11.974;2023-04-06T01:46:55;0.73;;;0.73;;
24826;SDS011;12910;57.690;11.974;2023-04-06T01:49:21;0.70;;;0.70;;
24826;SDS011;12910;57.690;11.974;2023-04-06T01:51:47;0.90;;;0.80;;
24826;SDS011;12910;57.690;11.974;2023-04-06T01:54:12;0.60;;;0.60;;
24826;SDS011;12910;57.690;11.974;2023-04-06T01:56:38;0.70;;;0.70;;
24826;SDS011;12910;57.690;11.974;2023-04-06T01:59:03;1.03;;;0.83;;
24826;SDS011;12910;57.690;11.974;2023-04-06T02:01:28;0.80;;;0.80;;
24826;SDS011;12910;57.690;11.974;2023-04-06T02:03:54;0.80;;;0.60;;
24826;SDS011;12910;57.690;11.974;2023-04-06T02:06:19;0.77;;;0.77;;
24826;SDS011;12910;57.690;11.974;2023-04-06T02:08:45;0.70;;;0.70;;
24826;SDS011;12910;57.690;11.974;2023-04-06T02:11:10;0.77;;;0.77;;
24826;SDS011;12910;57.690;11.974;2023-04-06T02:13:36;0.90;;;0.90;;
24826;SDS011;12910;57.690;11.974;2023-04-06T02:16:01;1.67;;;0.70;;
24826;SDS011;12910;57.690;11.974;2023-04-06T02:18:27;0.93;;;0.87;;
24826;SDS011;12910;57.690;11.974;2023-04-06T02:20:54;0.50;;;0.50;;
24826;SDS011;12910;57.690;11.974;2023-04-06T02:23:20;0.70;;;0.70;;
24826;SDS011;12910;57.690;11.974;2023-04-06T02:25:46;3.50;;;0.70;;
24826;SDS011;12910;57.690;11.974;2023-04-06T02:28:11;0.87;;;0.83;;
24826;SDS011;12910;57.690;11.974;2023-04-06T02:30:36;0.60;;;0.60;;
24826;SDS011;12910;57.690;11.974;2023-04-06T02:33:02;0.70;;;0.70;;
24826;SDS011;12910;57.690;11.974;2023-04-06T02:35:28;0.70;;;0.70;;
24826;SDS011;12910;57.690;11.974;2023-04-06T02:37:56;0.90;;;0.80;;
24826;SDS011;12910;57.690;11.974;2023-04-06T02:40:22;0.93;;;0.80;;
24826;SDS011;12910;57.690;11.974;2023-04-06T02:42:47;0.93;;;0.93;;
24826;SDS011;12910;57.690;11.974;2023-04-06T02:45:12;0.90;;;0.90;;
24826;SDS011;12910;57.690;11.974;2023-04-06T02:47:38;0.73;;;0.73;;
24826;SDS011;12910;57.690;11.974;2023-04-06T02:50:03;3.27;;;1.10;;
24826;SDS011;12910;57.690;11.974;2023-04-06T02:52:29;0.60;;;0.60;;
24826;SDS011;12910;57.690;11.974;2023-04-06T02:54:55;0.80;;;0.80;;
24826;SDS011;12910;57.690;11.974;2023-04-06T02:57:20;0.80;;;0.80;;
24826;SDS011;12910;57.690;11.974;2023-04-06T02:59:46;1.10;;;1.00;;
24826;SDS011;12910;57.690;11.974;2023-04-06T03:02:11;0.77;;;0.70;;
24826;SDS011;12910;57.690;11.974;2023-04-06T03:04:36;0.80;;;0.70;;
24826;SDS011;12910;57.690;11.974;2023-04-06T03:07:02;1.07;;;0.60;;
24826;SDS011;12910;57.690;11.974;2023-04-06T03:09:27;1.03;;;0.93;;
24826;SDS011;12910;57.690;11.974;2023-04-06T03:11:52;0.90;;;0.90;;
24826;SDS011;12910;57.690;11.974;2023-04-06T03:14:18;1.00;;;0.80;;
24826;SDS011;12910;57.690;11.974;2023-04-06T03:16:46;2.07;;;0.87;;
24826;SDS011;12910;57.690;11.974;2023-04-06T03:19:15;1.40;;;0.87;;
24826;SDS011;12910;57.690;11.974;2023-04-06T03:21:40;0.97;;;0.90;;
24826;SDS011;12910;57.690;11.974;2023-04-06T03:24:07;1.10;;;0.90;;
24826;SDS011;12910;57.690;11.974;2023-04-06T03:26:32;1.20;;;0.70;;
24826;SDS011;12910;57.690;11.974;2023-04-06T03:28:58;0.60;;;0.60;;
24826;SDS011;12910;57.690;11.974;2023-04-06T03:31:23;0.90;;;0.90;;
24826;SDS011;12910;57.690;11.974;2023-04-06T03:33:49;0.70;;;0.70;;
24826;SDS011;12910;57.690;11.974;2023-04-06T03:36:14;0.80;;;0.80;;
24826;SDS011;12910;57.690;11.974;2023-04-06T03:38:40;0.77;;;0.77;;
24826;SDS011;12910;57.690;11.974;2023-04-06T03:41:05;0.80;;;0.80;;
24826;SDS011;12910;57.690;11.974;2023-04-06T03:43:30;1.20;;;1.10;;
24826;SDS011;12910;57.690;11.974;2023-04-06T03:45:56;0.70;;;0.70;;
24826;SDS011;12910;57.690;11.974;2023-04-06T03:48:21;4.27;;;1.10;;
24826;SDS011;12910;57.690;11.974;2023-04-06T03:50:46;1.07;;;0.93;;
24826;SDS011;12910;57.690;11.974;2023-04-06T03:53:12;0.77;;;0.77;;
24826;SDS011;12910;57.690;11.974;2023-04-06T03:55:37;0.80;;;0.80;;
24826;SDS011;12910;57.690;11.974;2023-04-06T03:58:02;2.03;;;0.93;;
24826;SDS011;12910;57.690;11.974;2023-04-06T04:00:28;1.80;;;1.17;;
24826;SDS011;12910;57.690;11.974;2023-04-06T04:02:53;0.90;;;0.90;;
24826;SDS011;12910;57.690;11.974;2023-04-06T04:05:18;1.10;;;0.87;;
24826;SDS011;12910;57.690;11.974;2023-04-06T04:07:44;2.30;;;0.80;;
24826;SDS011;12910;57.690;11.974;2023-04-06T04:10:09;1.00;;;0.90;;
24826;SDS011;12910;57.690;11.974;2023-04-06T04:12:35;1.00;;;0.90;;
24826;SDS011;12910;57.690;11.974;2023-04-06T04:15:01;0.83;;;0.83;;
24826;SDS011;12910;57.690;11.974;2023-04-06T04:17:27;0.80;;;0.80;;
24826;SDS011;12910;57.690;11.974;2023-04-06T04:19:53;2.53;;;0.60;;
24826;SDS011;12910;57.690;11.974;2023-04-06T04:22:18;0.70;;;0.70;;
24826;SDS011;12910;57.690;11.974;2023-04-06T04:24:44;0.77;;;0.77;;
24826;SDS011;12910;57.690;11.974;2023-04-06T04:27:09;2.10;;;0.80;;
24826;SDS011;12910;57.690;11.974;2023-04-06T04:29:34;1.03;;;0.87;;
24826;SDS011;12910;57.690;11.974;2023-04-06T04:32:00;1.40;;;1.20;;
24826;SDS011;12910;57.690;11.974;2023-04-06T04:34:25;0.80;;;0.80;;
24826;SDS011;12910;57.690;11.974;2023-04-06T04:36:51;1.10;;;1.00;;
24826;SDS011;12910;57.690;11.974;2023-04-06T04:39:17;1.00;;;0.90;;
24826;SDS011;12910;57.690;11.974;2023-04-06T04:41:42;2.20;;;1.00;;
24826;SDS011;12910;57.690;11.974;2023-04-06T04:44:07;0.77;;;0.77;;
24826;SDS011;12910;57.690;11.974;2023-04-06T04:46:33;1.10;;;1.00;;
24826;SDS011;12910;57.690;11.974;2023-04-06T04:48:58;1.03;;;1.03;;
24826;SDS011;12910;57.690;11.974;2023-04-06T04:51:23;0.93;;;0.93;;
24826;SDS011;12910;57.690;11.974;2023-04-06T04:53:50;0.80;;;0.80;;
24826;SDS011;12910;57.690;11.974;2023-04-06T04:56:15;0.90;;;0.90;;
24826;SDS011;12910;57.690;11.974;2023-04-06T04:58:40;1.20;;;1.10;;
24826;SDS011;12910;57.690;11.974;2023-04-06T05:01:06;1.20;;;1.17;;
24826;SDS011;12910;57.690;11.974;2023-04-06T05:03:32;1.20;;;1.10;;
24826;SDS011;12910;57.690;11.974;2023-04-06T05:05:57;1.37;;;0.80;;
24826;SDS011;12910;57.690;11.974;2023-04-06T05:08:23;1.07;;;1.07;;
24826;SDS011;12910;57.690;11.974;2023-04-06T05:10:48;1.50;;;1.40;;
24826;SDS011;12910;57.690;11.974;2023-04-06T05:13:14;1.20;;;1.10;;
24826;SDS011;12910;57.690;11.974;2023-04-06T05:15:40;2.00;;;1.20;;
24826;SDS011;12910;57.690;11.974;2023-04-06T05:18:09;2.53;;;2.43;;
24826;SDS011;12910;57.690;11.974;2023-04-06T05:20:35;3.80;;;1.20;;
24826;SDS011;12910;57.690;11.974;2023-04-06T05:23:01;1.63;;;1.53;;
24826;SDS011;12910;57.690;11.974;2023-04-06T05:25:26;0.83;;;0.80;;
24826;SDS011;12910;57.690;11.974;2023-04-06T05:27:52;4.97;;;0.90;;
24826;SDS011;12910;57.690;11.974;2023-04-06T05:30:18;1.40;;;1.13;;
24826;SDS011;12910;57.690;11.974;2023-04-06T05:32:43;1.30;;;1.00;;
24826;SDS011;12910;57.690;11.974;2023-04-06T05:35:09;1.97;;;1.23;;
24826;SDS011;12910;57.690;11.974;2023-04-06T05:37:35;0.70;;;0.70;;
24826;SDS011;12910;57.690;11.974;2023-04-06T05:40:00;0.90;;;0.73;;
24826;SDS011;12910;57.690;11.974;2023-04-06T05:42:26;1.03;;;0.90;;
24826;SDS011;12910;57.690;11.974;2023-04-06T05:44:52;1.10;;;1.00;;
24826;SDS011;12910;57.690;11.974;2023-04-06T05:47:17;1.97;;;0.97;;
24826;SDS011;12910;57.690;11.974;2023-04-06T05:49:43;1.10;;;1.03;;
24826;SDS011;12910;57.690;11.974;2023-04-06T05:52:08;0.90;;;0.90;;
24826;SDS011;12910;57.690;11.974;2023-04-06T05:54:35;2.60;;;1.00;;
24826;SDS011;12910;57.690;11.974;2023-04-06T05:57:01;2.00;;;1.00;;
24826;SDS011;12910;57.690;11.974;2023-04-06T05:59:27;0.80;;;0.80;;
24826;SDS011;12910;57.690;11.974;2023-04-06T06:01:52;1.33;;;1.07;;
24826;SDS011;12910;57.690;11.974;2023-04-06T06:04:17;0.87;;;0.73;;
24826;SDS011;12910;57.690;11.974;2023-04-06T06:06:43;1.20;;;0.97;;
24826;SDS011;12910;57.690;11.974;2023-04-06T06:09:08;1.40;;;1.10;;
24826;SDS011;12910;57.690;11.974;2023-04-06T06:11:33;0.90;;;0.90;;
24826;SDS011;12910;57.690;11.974;2023-04-06T06:13:59;1.80;;;1.07;;
24826;SDS011;12910;57.690;11.974;2023-04-06T06:16:24;0.83;;;0.83;;
24826;SDS011;12910;57.690;11.974;2023-04-06T06:18:50;1.10;;;0.80;;
24826;SDS011;12910;57.690;11.974;2023-04-06T06:21:15;1.27;;;0.93;;
24826;SDS011;12910;57.690;11.974;2023-04-06T06:23:42;0.77;;;0.73;;
24826;SDS011;12910;57.690;11.974;2023-04-06T06:26:08;0.77;;;0.60;;
24826;SDS011;12910;57.690;11.974;2023-04-06T06:28:33;0.87;;;0.87;;
24826;SDS011;12910;57.690;11.974;2023-04-06T06:30:59;1.00;;;1.00;;
24826;SDS011;12910;57.690;11.974;2023-04-06T06:33:24;0.80;;;0.80;;
24826;SDS011;12910;57.690;11.974;2023-04-06T06:35:51;2.60;;;2.03;;
24826;SDS011;12910;57.690;11.974;2023-04-06T06:38:16;0.80;;;0.80;;
24826;SDS011;12910;57.690;11.974;2023-04-06T06:40:42;0.80;;;0.80;;
24826;SDS011;12910;57.690;11.974;2023-04-06T06:43:07;0.90;;;0.90;;
24826;SDS011;12910;57.690;11.974;2023-04-06T06:45:33;0.87;;;0.87;;
24826;SDS011;12910;57.690;11.974;2023-04-06T06:47:58;1.23;;;1.10;;
24826;SDS011;12910;57.690;11.974;2023-04-06T06:50:24;0.97;;;0.97;;
24826;SDS011;12910;57.690;11.974;2023-04-06T06:52:49;2.87;;;0.83;;
24826;SDS011;12910;57.690;11.974;2023-04-06T06:55:15;1.47;;;0.90;;
24826;SDS011;12910;57.690;11.974;2023-04-06T06:57:40;0.90;;;0.90;;
24826;SDS011;12910;57.690;11.974;2023-04-06T07:00:07;1.63;;;1.00;;
24826;SDS011;12910;57.690;11.974;2023-04-06T07:02:34;1.07;;;0.97;;
24826;SDS011;12910;57.690;11.974;2023-04-06T07:05:00;0.83;;;0.83;;
24826;SDS011;12910;57.690;11.974;2023-04-06T07:07:26;0.80;;;0.80;;
24826;SDS011;12910;57.690;11.974;2023-04-06T07:09:52;1.83;;;1.00;;
24826;SDS011;12910;57.690;11.974;2023-04-06T07:12:17;1.20;;;0.90;;
24826;SDS011;12910;57.690;11.974;2023-04-06T07:14:43;1.20;;;0.90;;
24826;SDS011;12910;57.690;11.974;2023-04-06T07:17:08;1.07;;;1.07;;
24826;SDS011;12910;57.690;11.974;2023-04-06T07:19:35;1.30;;;1.20;;
24826;SDS011;12910;57.690;11.974;2023-04-06T07:22:00;0.70;;;0.70;;
24826;SDS011;12910;57.690;11.974;2023-04-06T07:24:26;1.07;;;0.80;;
24826;SDS011;12910;57.690;11.974;2023-04-06T07:26:51;1.53;;;1.10;;
24826;SDS011;12910;57.690;11.974;2023-04-06T07:29:16;1.53;;;1.43;;
24826;SDS011;12910;57.690;11.974;2023-04-06T07:31:43;1.43;;;0.90;;
24826;SDS011;12910;57.690;11.974;2023-04-06T07:34:08;0.97;;;0.90;;
24826;SDS011;12910;57.690;11.974;2023-04-06T07:36:33;2.50;;;0.90;;
24826;SDS011;12910;57.690;11.974;2023-04-06T07:38:59;1.47;;;1.00;;
24826;SDS011;12910;57.690;11.974;2023-04-06T07:41:24;1.23;;;1.00;;
24826;SDS011;12910;57.690;11.974;2023-04-06T07:43:49;0.70;;;0.70;;
24826;SDS011;12910;57.690;11.974;2023-04-06T07:46:15;1.03;;;0.70;;
24826;SDS011;12910;57.690;11.974;2023-04-06T07:48:40;4.30;;;0.80;;
24826;SDS011;12910;57.690;11.974;2023-04-06T07:51:06;0.70;;;0.70;;
24826;SDS011;12910;57.690;11.974;2023-04-06T07:53:32;1.47;;;0.90;;
24826;SDS011;12910;57.690;11.974;2023-04-06T07:55:58;1.37;;;0.80;;
24826;SDS011;12910;57.690;11.974;2023-04-06T07:58:23;1.87;;;0.90;;
24826;SDS011;12910;57.690;11.974;2023-04-06T08:00:49;12.50;;;1.47;;
24826;SDS011;12910;57.690;11.974;2023-04-06T08:03:14;1.30;;;1.20;;
24826;SDS011;12910;57.690;11.974;2023-04-06T08:05:41;0.70;;;0.70;;
24826;SDS011;12910;57.690;11.974;2023-04-06T08:08:06;2.60;;;1.10;;
24826;SDS011;12910;57.690;11.974;2023-04-06T08:10:32;0.77;;;0.77;;
24826;SDS011;12910;57.690;11.974;2023-04-06T08:12:59;1.00;;;0.73;;
24826;SDS011;12910;57.690;11.974;2023-04-06T08:15:24;2.23;;;1.00;;
24826;SDS011;12910;57.690;11.974;2023-04-06T08:17:50;3.23;;;1.27;;
24826;SDS011;12910;57.690;11.974;2023-04-06T08:20:15;2.37;;;0.87;;
24826;SDS011;12910;57.690;11.974;2023-04-06T08:22:40;1.47;;;0.90;;
24826;SDS011;12910;57.690;11.974;2023-04-06T08:25:06;5.70;;;0.83;;
24826;SDS011;12910;57.690;11.974;2023-04-06T08:27:31;1.33;;;0.90;;
24826;SDS011;12910;57.690;11.974;2023-04-06T08:29:57;1.43;;;1.00;;
24826;SDS011;12910;57.690;11.974;2023-04-06T08:32:22;0.90;;;0.90;;
24826;SDS011;12910;57.690;11.974;2023-04-06T08:34:47;0.80;;;0.80;;
24826;SDS011;12910;57.690;11.974;2023-04-06T08:37:13;1.13;;;0.70;;
24826;SDS011;12910;57.690;11.974;2023-04-06T08:39:38;2.43;;;0.87;;
24826;SDS011;12910;57.690;11.974;2023-04-06T08:42:04;1.33;;;0.70;;
24826;SDS011;12910;57.690;11.974;2023-04-06T08:44:29;0.77;;;0.70;;
24826;SDS011;12910;57.690;11.974;2023-04-06T08:46:57;1.47;;;0.80;;
24826;SDS011;12910;57.690;11.974;2023-04-06T08:49:24;1.20;;;0.87;;
24826;SDS011;12910;57.690;11.974;2023-04-06T08:51:49;1.00;;;0.83;;
24826;SDS011;12910;57.690;11.974;2023-04-06T08:54:15;1.60;;;1.00;;
24826;SDS011;12910;57.690;11.974;2023-04-06T08:56:41;1.30;;;1.20;;
24826;SDS011;12910;57.690;11.974;2023-04-06T08:59:08;1.60;;;1.00;;
24826;SDS011;12910;57.690;11.974;2023-04-06T09:01:36;2.23;;;1.00;;
24826;SDS011;12910;57.690;11.974;2023-04-06T09:04:06;1.53;;;1.43;;
24826;SDS011;12910;57.690;11.974;2023-04-06T09:06:35;1.30;;;1.30;;
24826;SDS011;12910;57.690;11.974;2023-04-06T09:09:02;2.10;;;1.40;;
24826;SDS011;12910;57.690;11.974;2023-04-06T09:11:27;0.90;;;0.90;;
24826;SDS011;12910;57.690;11.974;2023-04-06T09:13:54;1.30;;;1.30;;
24826;SDS011;12910;57.690;11.974;2023-04-06T09:16:21;1.00;;;1.00;;
24826;SDS011;12910;57.690;11.974;2023-04-06T09:18:48;4.93;;;1.10;;
24826;SDS011;12910;57.690;11.974;2023-04-06T09:21:16;1.43;;;1.33;;
24826;SDS011;12910;57.690;11.974;2023-04-06T09:23:43;4.00;;;1.20;;
24826;SDS011;12910;57.690;11.974;2023-04-06T09:26:15;6.67;;;1.20;;
24826;SDS011;12910;57.690;11.974;2023-04-06T09:28:52;2.90;;;1.17;;
24826;SDS011;12910;57.690;11.974;2023-04-06T09:31:26;1.10;;;1.00;;
24826;SDS011;12910;57.690;11.974;2023-04-06T09:33:52;1.60;;;1.10;;
24826;SDS011;12910;57.690;11.974;2023-04-06T09:36:18;1.10;;;1.00;;
24826;SDS011;12910;57.690;11.974;2023-04-06T09:38:52;1.90;;;1.40;;
24826;SDS011;12910;57.690;11.974;2023-04-06T09:41:21;2.70;;;1.40;;
24826;SDS011;12910;57.690;11.974;2023-04-06T09:43:51;1.60;;;1.40;;
24826;SDS011;12910;57.690;11.974;2023-04-06T09:46:26;1.63;;;1.53;;
24826;SDS011;12910;57.690;11.974;2023-04-06T09:48:52;3.17;;;2.00;;
24826;SDS011;12910;57.690;11.974;2023-04-06T09:51:18;2.10;;;2.00;;
24826;SDS011;12910;57.690;11.974;2023-04-06T09:53:45;2.23;;;2.07;;
24826;SDS011;12910;57.690;11.974;2023-04-06T09:56:17;2.40;;;2.27;;
24826;SDS011;12910;57.690;11.974;2023-04-06T09:58:48;2.13;;;2.03;;
24826;SDS011;12910;57.690;11.974;2023-04-06T10:01:18;2.50;;;2.30;;
24826;SDS011;12910;57.690;11.974;2023-04-06T10:06:11;3.37;;;2.17;;
24826;SDS011;12910;57.690;11.974;2023-04-06T10:08:40;3.10;;;2.80;;
24826;SDS011;12910;57.690;11.974;2023-04-06T10:11:11;2.00;;;1.90;;
24826;SDS011;12910;57.690;11.974;2023-04-06T10:13:36;4.20;;;2.17;;
24826;SDS011;12910;57.690;11.974;2023-04-06T10:16:02;3.23;;;1.97;;
24826;SDS011;12910;57.690;11.974;2023-04-06T10:18:28;2.50;;;2.30;;
24826;SDS011;12910;57.690;11.974;2023-04-06T10:20:55;2.70;;;2.47;;
24826;SDS011;12910;57.690;11.974;2023-04-06T10:26:00;3.37;;;2.50;;
24826;SDS011;12910;57.690;11.974;2023-04-06T10:28:33;3.23;;;2.93;;
24826;SDS011;12910;57.690;11.974;2023-04-06T10:31:10;4.17;;;3.10;;
24826;SDS011;12910;57.690;11.974;2023-04-06T10:33:35;3.10;;;2.90;;
24826;SDS011;12910;57.690;11.974;2023-04-06T10:36:13;4.80;;;4.50;;
24826;SDS011;12910;57.690;11.974;2023-04-06T10:38:40;4.40;;;4.10;;
24826;SDS011;12910;57.690;11.974;2023-04-06T10:41:07;6.10;;;3.97;;
24826;SDS011;12910;57.690;11.974;2023-04-06T10:43:34;4.70;;;4.30;;
24826;SDS011;12910;57.690;11.974;2023-04-06T10:46:01;5.47;;;5.07;;
24826;SDS011;12910;57.690;11.974;2023-04-06T10:48:40;5.87;;;5.27;;
24826;SDS011;12910;57.690;11.974;2023-04-06T10:51:08;8.97;;;5.63;;
24826;SDS011;12910;57.690;11.974;2023-04-06T10:53:35;5.60;;;5.10;;
24826;SDS011;12910;57.690;11.974;2023-04-06T10:56:01;6.30;;;5.90;;
24826;SDS011;12910;57.690;11.974;2023-04-06T10:58:27;6.77;;;6.17;;
24826;SDS011;12910;57.690;11.974;2023-04-06T11:00:54;6.43;;;5.83;;
24826;SDS011;12910;57.690;11.974;2023-04-06T11:03:20;6.40;;;5.97;;
24826;SDS011;12910;57.690;11.974;2023-04-06T11:05:50;6.40;;;6.00;;
24826;SDS011;12910;57.690;11.974;2023-04-06T11:08:32;5.53;;;5.13;;
24826;SDS011;12910;57.690;11.974;2023-04-06T11:14:16;6.30;;;5.80;;
24826;SDS011;12910;57.690;11.974;2023-04-06T11:16:24;6.00;;;5.50;;
24826;SDS011;12910;57.690;11.974;2023-04-06T11:18:54;6.50;;;5.03;;
24826;SDS011;12910;57.690;11.974;2023-04-06T11:21:35;7.53;;;4.03;;
24826;SDS011;12910;57.690;11.974;2023-04-06T11:24:05;4.73;;;4.23;;
24826;SDS011;12910;57.690;11.974;2023-04-06T11:26:36;3.80;;;3.50;;
24826;SDS011;12910;57.690;11.974;2023-04-06T11:29:13;4.33;;;3.57;;
24826;SDS011;12910;57.690;11.974;2023-04-06T11:31:41;3.63;;;3.00;;
24826;SDS011;12910;57.690;11.974;2023-04-06T11:34:10;3.77;;;3.27;;
24826;SDS011;12910;57.690;11.974;2023-04-06T11:36:39;7.07;;;2.97;;
24826;SDS011;12910;57.690;11.974;2023-04-06T11:39:06;5.97;;;2.80;;
24826;SDS011;12910;57.690;11.974;2023-04-06T11:41:32;3.50;;;3.20;;
24826;SDS011;12910;57.690;11.974;2023-04-06T11:43:58;4.23;;;2.60;;
24826;SDS011;12910;57.690;11.974;2023-04-06T11:46:26;3.27;;;2.70;;
24826;SDS011;12910;57.690;11.974;2023-04-06T11:48:52;3.20;;;2.30;;
24826;SDS011;12910;57.690;11.974;2023-04-06T11:51:23;2.90;;;2.70;;
24826;SDS011;12910;57.690;11.974;2023-04-06T11:53:49;3.00;;;2.20;;
24826;SDS011;12910;57.690;11.974;2023-04-06T11:56:27;6.17;;;2.23;;
24826;SDS011;12910;57.690;11.974;2023-04-06T11:58:54;4.27;;;2.60;;
24826;SDS011;12910;57.690;11.974;2023-04-06T12:01:21;3.37;;;3.07;;
24826;SDS011;12910;57.690;11.974;2023-04-06T12:03:47;3.20;;;1.70;;
24826;SDS011;12910;57.690;11.974;2023-04-06T12:06:13;3.83;;;1.77;;
24826;SDS011;12910;57.690;11.974;2023-04-06T12:08:39;2.20;;;2.00;;
24826;SDS011;12910;57.690;11.974;2023-04-06T12:11:05;2.97;;;2.10;;
24826;SDS011;12910;57.690;11.974;2023-04-06T12:13:30;1.97;;;1.77;;
24826;SDS011;12910;57.690;11.974;2023-04-06T12:15:56;8.47;;;2.20;;
24826;SDS011;12910;57.690;11.974;2023-04-06T12:18:21;3.27;;;2.17;;
24826;SDS011;12910;57.690;11.974;2023-04-06T12:20:47;2.20;;;2.00;;
24826;SDS011;12910;57.690;11.974;2023-04-06T12:23:12;4.03;;;1.53;;
24826;SDS011;12910;57.690;11.974;2023-04-06T12:25:39;1.43;;;1.23;;
24826;SDS011;12910;57.690;11.974;2023-04-06T12:28:05;5.03;;;1.50;;
24826;SDS011;12910;57.690;11.974;2023-04-06T12:30:31;2.37;;;1.30;;
24826;SDS011;12910;57.690;11.974;2023-04-06T12:32:57;2.97;;;1.47;;
24826;SDS011;12910;57.690;11.974;2023-04-06T12:35:23;3.97;;;1.70;;
24826;SDS011;12910;57.690;11.974;2023-04-06T12:37:49;3.77;;;1.90;;
24826;SDS011;12910;57.690;11.974;2023-04-06T12:40:14;2.30;;;1.57;;
24826;SDS011;12910;57.690;11.974;2023-04-06T12:42:40;2.17;;;2.03;;
24826;SDS011;12910;57.690;11.974;2023-04-06T12:45:06;2.13;;;1.43;;
24826;SDS011;12910;57.690;11.974;2023-04-06T12:47:33;4.27;;;1.73;;
24826;SDS011;12910;57.690;11.974;2023-04-06T12:49:58;2.03;;;1.50;;
24826;SDS011;12910;57.690;11.974;2023-04-06T12:52:23;1.70;;;1.60;;
24826;SDS011;12910;57.690;11.974;2023-04-06T12:54:49;2.33;;;1.33;;
24826;SDS011;12910;57.690;11.974;2023-04-06T12:57:14;1.30;;;1.10;;
24826;SDS011;12910;57.690;11.974;2023-04-06T12:59:42;1.50;;;1.30;;
24826;SDS011;12910;57.690;11.974;2023-04-06T13:02:09;1.20;;;1.10;;
24826;SDS011;12910;57.690;11.974;2023-04-06T13:04:35;0.73;;;0.73;;
24826;SDS011;12910;57.690;11.974;2023-04-06T13:07:01;1.67;;;0.90;;
24826;SDS011;12910;57.690;11.974;2023-04-06T13:09:26;2.20;;;1.20;;
24826;SDS011;12910;57.690;11.974;2023-04-06T13:11:51;1.00;;;0.80;;
24826;SDS011;12910;57.690;11.974;2023-04-06T13:14:17;1.10;;;0.93;;
24826;SDS011;12910;57.690;11.974;2023-04-06T13:16:42;1.90;;;1.03;;
24826;SDS011;12910;57.690;11.974;2023-04-06T13:19:08;1.23;;;1.10;;
24826;SDS011;12910;57.690;11.974;2023-04-06T13:21:33;1.83;;;0.90;;
24826;SDS011;12910;57.690;11.974;2023-04-06T13:23:58;1.83;;;0.80;;
24826;SDS011;12910;57.690;11.974;2023-04-06T13:26:24;0.80;;;0.80;;
24826;SDS011;12910;57.690;11.974;2023-04-06T13:28:50;1.60;;;0.70;;
24826;SDS011;12910;57.690;11.974;2023-04-06T13:31:16;1.27;;;0.77;;
24826;SDS011;12910;57.690;11.974;2023-04-06T13:33:41;0.77;;;0.77;;
24826;SDS011;12910;57.690;11.974;2023-04-06T13:36:06;2.53;;;0.77;;
24826;SDS011;12910;57.690;11.974;2023-04-06T13:38:33;2.10;;;0.73;;
24826;SDS011;12910;57.690;11.974;2023-04-06T13:40:58;1.40;;;0.87;;
24826;SDS011;12910;57.690;11.974;2023-04-06T13:43:24;0.60;;;0.60;;
24826;SDS011;12910;57.690;11.974;2023-04-06T13:45:52;0.70;;;0.70;;
24826;SDS011;12910;57.690;11.974;2023-04-06T13:48:19;2.17;;;0.87;;
24826;SDS011;12910;57.690;11.974;2023-04-06T13:50:45;1.47;;;0.90;;
24826;SDS011;12910;57.690;11.974;2023-04-06T13:53:11;2.17;;;1.37;;
24826;SDS011;12910;57.690;11.974;2023-04-06T13:55:36;1.53;;;0.60;;
24826;SDS011;12910;57.690;11.974;2023-04-06T13:58:02;1.33;;;0.70;;
24826;SDS011;12910;57.690;11.974;2023-04-06T14:00:27;4.27;;;0.80;;
24826;SDS011;12910;57.690;11.974;2023-04-06T14:02:55;1.93;;;1.40;;
24826;SDS011;12910;57.690;11.974;2023-04-06T14:05:21;1.20;;;0.90;;
24826;SDS011;12910;57.690;11.974;2023-04-06T14:07:48;2.40;;;1.00;;
24826;SDS011;12910;57.690;11.974;2023-04-06T14:10:13;1.30;;;1.00;;
24826;SDS011;12910;57.690;11.974;2023-04-06T14:12:40;1.27;;;1.17;;
24826;SDS011;12910;57.690;11.974;2023-04-06T14:15:10;1.53;;;0.90;;
24826;SDS011;12910;57.690;11.974;2023-04-06T14:17:36;0.90;;;0.90;;
24826;SDS011;12910;57.690;11.974;2023-04-06T14:20:02;1.87;;;1.33;;
24826;SDS011;12910;57.690;11.974;2023-04-06T14:22:29;1.13;;;0.87;;
24826;SDS011;12910;57.690;11.974;2023-04-06T14:24:54;1.10;;;1.00;;
24826;SDS011;12910;57.690;11.974;2023-04-06T14:27:20;2.23;;;1.00;;
24826;SDS011;12910;57.690;11.974;2023-04-06T14:29:46;1.67;;;1.10;;
24826;SDS011;12910;57.690;11.974;2023-04-06T14:32:12;1.13;;;0.90;;
24826;SDS011;12910;57.690;11.974;2023-04-06T14:34:37;1.33;;;1.23;;